ETHF/FRZ METAR and TAF weather

Enter ICAO airport designator
Station Type Date Time Source
ETHF METAR 2022/06/27 17:20 UTC NOAA

ETHF 271720Z 28007KT 9999 FEW040 BKN074 22/13 Q1017 BLU


Station Type Date Time Source
ETHF Decoded METAR 2022/06/27 17:20 UTC NOAA

Fritzlar, Germany (ETHF) 51-07N 009-17E 181M
Jun 27, 2022 - 01:20 PM EDT / 2022.06.27 1720 UTC
Wind: from the W (280 degrees) at 8 MPH (7 KT):0
Visibility: greater than 7 mile(s):0
Sky conditions: mostly cloudy
Temperature: 71 F (22 C)
Dew Point: 55 F (13 C)
Relative Humidity: 56%
Pressure (altimeter): 30.03 in. Hg (1017 hPa)
ob: ETHF 271720Z 28007KT 9999 FEW040 BKN074 22/13 Q1017 BLU
cycle: 17

Station Type Date Time Source
ETHF TAF 2022/02/17 06:31 UTC NOAA

TAF ETHF 170520Z 1706/1724 27020G30KT 9999 NSW FEW025 BKN060
TEMPO 1706/1712 28025G50KT 3000 SHRA SCT020CB BKN030
TEMPO 1712/1715 28025G40KT 6000 -SHRA SCT020TCU BKN030

Example: see airport list